Time;durP1;ratioP1;P1;durP2;ratioP2;P2;SDS_P1;SDS_P2;PMS_P1;PMS_P2;Temp;Humidity;BMP_temperature;BMP_pressure;BME280_temperature;BME280_humidity;BME280_pressure;Samples;Min_cycle;Max_cycle;Signal;HPM_P1;HPM_P2
2021/11/19 00:01:50;;;;;;;15.65;10.40;;;;;;;6.12;68.06;97777.61;1611556;87;25880;-86
2021/11/19 00:04:16;;;;;;;17.10;10.13;;;;;;;6.11;68.13;97778.11;1612432;88;25792;-86
2021/11/19 00:06:44;;;;;;;18.48;10.98;;;;;;;6.14;68.14;97773.75;1613174;88;25737;-87
2021/11/19 00:09:11;;;;;;;20.30;10.63;;;;;;;6.13;68.13;97781.97;1617582;87;26447;-86
2021/11/19 00:11:43;;;;;;;18.17;10.38;;;;;;;6.15;68.16;97773.25;1611434;88;27492;-87
2021/11/19 00:14:10;;;;;;;17.13;9.93;;;;;;;6.17;68.13;97777.06;1611505;88;25780;-86
2021/11/19 00:16:40;;;;;;;15.80;11.00;;;;;;;6.18;68.15;97764.00;1616880;87;25859;-85
2021/11/19 00:19:08;;;;;;;15.72;10.00;;;;;;;6.16;68.17;97748.62;1612873;88;25832;-86
2021/11/19 00:21:37;;;;;;;15.40;11.03;;;;;;;6.14;68.19;97748.29;1612303;88;25982;-86
2021/11/19 00:24:05;;;;;;;15.53;10.58;;;;;;;6.16;68.22;97749.96;1611192;88;27480;-86
2021/11/19 00:26:33;;;;;;;17.42;11.22;;;;;;;6.16;68.18;97763.36;1611172;88;25794;-86
2021/11/19 00:29:01;;;;;;;16.57;10.32;;;;;;;6.14;68.21;97763.03;1611395;88;25835;-86
2021/11/19 00:31:30;;;;;;;16.60;10.60;;;;;;;6.20;68.21;97764.66;1611393;88;26483;-87
2021/11/19 00:33:56;;;;;;;18.55;10.70;;;;;;;6.21;68.16;97757.79;1611446;88;25875;-86
2021/11/19 00:36:26;;;;;;;17.70;11.33;;;;;;;6.23;68.14;97745.05;1611369;88;27407;-86
2021/11/19 00:38:57;;;;;;;18.67;10.70;;;;;;;6.27;68.16;97741.52;1614641;87;25859;-86
2021/11/19 00:41:25;;;;;;;19.17;9.68;;;;;;;6.28;68.12;97748.56;1611309;88;26054;-86
2021/11/19 00:43:51;;;;;;;21.40;11.38;;;;;;;6.27;68.09;97748.22;1611775;87;25839;-86
2021/11/19 00:46:18;;;;;;;19.45;10.13;;;;;;;6.25;68.14;97748.40;1638867;87;25309;-86
2021/11/19 00:48:45;;;;;;;16.25;9.40;;;;;;;6.26;68.15;97749.23;1638702;87;27449;-86
2021/11/19 00:51:17;;;;;;;14.65;9.78;;;;;;;6.25;68.20;97742.20;1639494;87;25775;-87
2021/11/19 00:53:48;;;;;;;19.32;9.88;;;;;;;6.25;68.10;97747.56;1639411;87;25735;-86
2021/11/19 00:56:22;;;;;;;17.73;10.00;;;;;;;6.25;68.14;97747.06;1639589;87;25770;-86
2021/11/19 00:58:50;;;;;;;14.93;10.28;;;;;;;6.25;68.09;97745.72;1653787;86;25871;-86
2021/11/19 01:01:22;;;;;;;16.30;9.75;;;;;;;6.27;68.11;97743.70;1653811;86;28161;-87
2021/11/19 01:03:49;;;;;;;15.83;9.78;;;;;;;6.28;68.10;97737.30;1652492;86;25983;-86
2021/11/19 01:06:16;;;;;;;14.85;9.38;;;;;;;6.28;68.03;97735.95;1642874;86;25264;-87
2021/11/19 01:08:43;;;;;;;18.62;9.20;;;;;;;6.28;68.09;97733.81;1653566;86;26397;-86
2021/11/19 01:11:15;;;;;;;17.20;9.85;;;;;;;6.32;68.05;97743.16;1642865;87;25867;-87
2021/11/19 01:13:45;;;;;;;14.83;9.45;;;;;;;6.35;68.01;97737.44;1653922;86;28367;-87
2021/11/19 01:16:17;;;;;;;14.58;9.88;;;;;;;6.36;68.02;97735.09;1642840;87;25780;-86
2021/11/19 01:18:51;;;;;;;18.23;9.05;;;;;;;6.38;67.97;97733.08;1652895;86;26341;-87
2021/11/19 01:21:23;;;;;;;16.52;9.95;;;;;;;6.37;67.99;97719.34;1642871;87;25771;-87
2021/11/19 01:23:50;;;;;;;15.75;9.30;;;;;;;6.35;67.92;97714.66;1653803;86;25249;-87
2021/11/19 01:26:23;;;;;;;15.32;10.05;;;;;;;6.35;67.96;97720.02;1642607;87;27522;-87
2021/11/19 01:28:54;;;;;;;16.57;9.30;;;;;;;6.35;67.95;97720.85;1641640;87;26291;-87
2021/11/19 01:31:29;;;;;;;14.55;10.70;;;;;;;6.35;68.06;97714.15;1641573;87;25920;-87
2021/11/19 01:33:56;;;;;;;14.68;9.73;;;;;;;6.40;68.02;97725.70;1653640;86;26561;-87
2021/11/19 01:36:23;;;;;;;12.75;9.08;;;;;;;6.40;67.99;97717.66;1653700;86;25826;-87
2021/11/19 01:38:51;;;;;;;16.23;10.13;;;;;;;6.42;67.94;97714.27;1653683;86;27379;-87
2021/11/19 01:41:25;;;;;;;16.90;9.58;;;;;;;6.42;67.95;97708.90;1642765;86;25801;-87
2021/11/19 01:43:55;;;;;;;13.88;9.63;;;;;;;6.44;67.96;97706.87;1632719;87;25836;-87
2021/11/19 01:46:27;;;;;;;14.45;9.83;;;;;;;6.43;68.00;97713.25;1625608;87;25831;-87
2021/11/19 01:48:56;;;;;;;16.73;9.40;;;;;;;6.45;67.96;97705.87;1626450;88;25844;-86
2021/11/19 01:51:36;;;;;;;16.05;8.80;;;;;;;6.44;67.97;97696.16;1626155;87;27417;-85
2021/11/19 01:54:29;;;;;;;16.65;9.25;;;;;;;6.44;68.01;97689.45;1625427;88;25966;-85
2021/11/19 01:57:14;;;;;;;14.58;9.53;;;;;;;6.44;68.12;97697.49;1626655;86;25824;-86
2021/11/19 01:59:55;;;;;;;15.18;9.43;;;;;;;6.44;68.05;97695.65;1626457;86;25818;-86
2021/11/19 02:02:37;;;;;;;16.40;9.60;;;;;;;6.43;68.18;97687.27;1626546;87;25866;-86
2021/11/19 02:05:15;;;;;;;16.70;10.10;;;;;;;6.44;68.22;97685.42;1626682;87;28223;-85
2021/11/19 02:07:50;;;;;;;15.20;8.93;;;;;;;6.42;68.21;97682.08;1626243;88;26148;-85
2021/11/19 02:10:48;;;;;;;17.62;9.18;;;;;;;6.41;68.20;97677.22;1625750;88;25813;-85
2021/11/19 02:13:32;;;;;;;17.77;9.45;;;;;;;6.41;68.27;97685.27;1626566;88;25808;-86
2021/11/19 02:16:09;;;;;;;13.68;8.55;;;;;;;6.45;68.32;97696.48;1626599;88;25841;-86
2021/11/19 02:18:41;;;;;;;15.15;8.93;;;;;;;6.45;68.21;97689.78;1626592;86;27565;-85
2021/11/19 02:21:16;;;;;;;14.87;9.00;;;;;;;6.45;68.28;97681.73;1621324;86;25707;-86
2021/11/19 02:23:48;;;;;;;13.30;8.85;;;;;;;6.46;68.08;97677.54;1625910;86;25722;-86
2021/11/19 02:26:19;;;;;;;14.55;8.83;;;;;;;6.46;68.25;97668.66;1625323;86;26571;-86
2021/11/19 02:28:49;;;;;;;15.03;8.65;;;;;;;6.47;68.30;97674.34;1626559;86;25733;-86
2021/11/19 02:31:24;;;;;;;12.73;8.50;;;;;;;6.48;68.31;97670.16;1626533;86;27380;-86
2021/11/19 02:33:54;;;;;;;13.28;9.33;;;;;;;6.51;68.28;97662.27;1626564;86;26306;-85
2021/11/19 02:36:26;;;;;;;12.90;8.28;;;;;;;6.49;68.22;97661.09;1626664;86;25729;-85
2021/11/19 02:39:04;;;;;;;14.30;8.18;;;;;;;6.48;68.27;97650.55;1611095;86;26496;-85
2021/11/19 02:41:36;;;;;;;11.78;7.40;;;;;;;6.50;68.34;97656.57;1626637;86;25821;-86
2021/11/19 02:44:07;;;;;;;14.78;7.90;;;;;;;6.50;68.32;97644.50;1626538;86;27454;-86
2021/11/19 02:46:39;;;;;;;10.48;7.50;;;;;;;6.49;68.23;97651.71;1626581;86;25962;-86
2021/11/19 02:49:06;;;;;;;13.00;8.13;;;;;;;6.48;68.25;97635.80;1626774;86;25746;-86
2021/11/19 02:51:35;;;;;;;11.20;7.55;;;;;;;6.48;68.29;97642.50;1626424;86;25729;-85
2021/11/19 02:54:05;;;;;;;10.40;7.97;;;;;;;6.49;68.30;97654.39;1626509;86;25777;-86
2021/11/19 02:56:33;;;;;;;11.00;7.42;;;;;;;6.52;68.27;97647.00;1626654;86;28116;-85
2021/11/19 02:59:02;;;;;;;12.25;7.70;;;;;;;6.53;68.28;97647.30;1626520;86;25802;-86
2021/11/19 03:01:40;;;;;;;11.25;6.87;;;;;;;6.52;68.24;97650.48;1626629;86;26507;-86
2021/11/19 03:04:14;;;;;;;10.50;7.50;;;;;;;6.54;68.26;97651.15;1626589;86;25875;-85
2021/11/19 03:06:46;;;;;;;14.15;7.53;;;;;;;6.55;68.28;97647.45;1626734;86;25793;-86
2021/11/19 03:09:17;;;;;;;10.93;7.20;;;;;;;6.57;68.30;97652.14;1626004;86;28073;-86
2021/11/19 03:11:44;;;;;;;10.08;6.67;;;;;;;6.56;68.23;97646.45;1626377;86;25932;-85
2021/11/19 03:14:14;;;;;;;13.55;7.05;;;;;;;6.56;68.30;97642.93;1626658;86;25927;-86
2021/11/19 03:16:43;;;;;;;11.45;7.33;;;;;;;6.56;68.31;97647.79;1626660;86;25829;-86
2021/11/19 03:19:11;;;;;;;13.25;8.00;;;;;;;6.56;68.25;97655.83;1626750;86;25774;-86
2021/11/19 03:21:40;;;;;;;9.58;6.60;;;;;;;6.54;68.28;97648.47;1626766;86;28288;-86
2021/11/19 03:24:08;;;;;;;11.10;7.60;;;;;;;6.55;68.33;97647.45;1626520;86;25728;-86
2021/11/19 03:26:36;;;;;;;9.85;6.92;;;;;;;6.57;68.27;97646.78;1650629;86;25762;-86
2021/11/19 03:29:06;;;;;;;12.20;8.03;;;;;;;6.55;68.32;97643.44;1637773;86;25817;-87
2021/11/19 03:31:34;;;;;;;11.57;7.65;;;;;;;6.56;68.33;97639.74;1626618;86;25668;-86
2021/11/19 03:34:02;;;;;;;10.72;7.67;;;;;;;6.56;68.34;97626.33;1626616;86;27466;-87
2021/11/19 03:36:29;;;;;;;9.58;7.25;;;;;;;6.57;68.35;97617.27;1626543;86;25749;-86
2021/11/19 03:38:59;;;;;;;11.78;8.10;;;;;;;6.56;68.35;97622.31;1626730;86;25766;-87
2021/11/19 03:41:29;;;;;;;9.73;7.42;;;;;;;6.55;68.36;97625.17;1626338;86;25723;-87
2021/11/19 03:44:07;;;;;;;9.95;6.97;;;;;;;6.55;68.38;97630.53;1626648;86;25706;-87
2021/11/19 03:46:39;;;;;;;13.43;7.92;;;;;;;6.54;68.41;97629.70;1628375;86;27425;-86
2021/11/19 03:49:06;;;;;;;12.82;7.58;;;;;;;6.51;68.43;97630.08;1626661;86;25712;-86
2021/11/19 03:51:38;;;;;;;12.43;8.08;;;;;;;6.49;68.50;97619.53;1630069;86;25740;-87
2021/11/19 03:54:07;;;;;;;10.63;8.05;;;;;;;6.47;68.51;97614.02;1631434;86;26359;-87
2021/11/19 03:56:34;;;;;;;13.88;8.08;;;;;;;6.45;68.62;97615.53;1631411;86;25780;-87
2021/11/19 03:59:01;;;;;;;12.80;8.13;;;;;;;6.44;68.68;97618.39;1631475;86;28138;-86
2021/11/19 04:01:33;;;;;;;11.22;7.70;;;;;;;6.45;68.71;97614.69;1631370;86;25762;-86
2021/11/19 04:04:02;;;;;;;11.50;7.50;;;;;;;6.46;68.78;97615.02;1631528;86;26442;-87
2021/11/19 04:06:29;;;;;;;11.68;7.58;;;;;;;6.46;68.88;97611.00;1631423;86;25725;-87
2021/11/19 04:08:56;;;;;;;10.45;7.83;;;;;;;6.46;68.94;97626.59;1631467;86;25795;-87
2021/11/19 04:11:25;;;;;;;8.93;7.05;;;;;;;6.39;68.86;97630.17;1631505;86;28278;-86
2021/11/19 04:13:52;;;;;;;11.40;7.10;;;;;;;6.35;69.04;97625.67;1631392;86;25919;-87
2021/11/19 04:16:24;;;;;;;9.95;7.40;;;;;;;6.36;69.17;97629.19;1631446;86;25823;-87
2021/11/19 04:18:51;;;;;;;9.33;6.72;;;;;;;6.37;69.25;97617.45;1633814;86;25899;-85
2021/11/19 04:21:20;;;;;;;10.72;7.35;;;;;;;6.38;69.27;97625.83;1642907;87;25835;-87
2021/11/19 04:23:49;;;;;;;11.50;6.87;;;;;;;6.39;69.35;97618.95;1653851;86;27477;-87
2021/11/19 04:26:17;;;;;;;12.50;7.03;;;;;;;6.42;69.36;97625.77;1642811;86;25822;-87
2021/11/19 04:28:45;;;;;;;11.63;7.45;;;;;;;6.42;69.42;97618.56;1643712;86;25844;-87
2021/11/19 04:31:12;;;;;;;9.58;6.80;;;;;;;6.44;69.47;97613.02;1631457;86;26427;-87
2021/11/19 04:33:39;;;;;;;11.45;6.87;;;;;;;6.44;69.45;97613.02;1631223;86;25496;-87
2021/11/19 04:36:07;;;;;;;10.15;6.50;;;;;;;6.45;69.43;97614.69;1631466;86;27999;-85
2021/11/19 04:38:33;;;;;;;9.93;7.05;;;;;;;6.45;69.42;97616.03;1631412;86;26449;-86
2021/11/19 04:41:02;;;;;;;10.23;6.30;;;;;;;6.42;69.49;97602.98;1631507;86;25312;-86
2021/11/19 04:43:30;;;;;;;9.15;6.53;;;;;;;6.39;69.46;97608.73;1631533;86;25801;-86
2021/11/19 04:45:58;;;;;;;8.48;5.70;;;;;;;6.38;69.58;97615.09;1631500;86;25793;-85
2021/11/19 04:48:27;;;;;;;9.73;6.30;;;;;;;6.38;69.60;97603.03;1648824;86;27412;-86
2021/11/19 04:50:53;;;;;;;10.10;6.15;;;;;;;6.38;69.68;97605.72;1644806;86;26626;-86
2021/11/19 04:53:23;;;;;;;6.83;5.42;;;;;;;6.36;69.75;97603.72;1695111;84;25856;-86
2021/11/19 04:55:50;;;;;;;6.47;5.47;;;;;;;6.35;69.68;97611.43;1695323;84;26293;-86
2021/11/19 04:58:18;;;;;;;9.23;5.60;;;;;;;6.33;69.80;97610.77;1695357;84;25851;-86
2021/11/19 05:00:52;;;;;;;8.85;6.90;;;;;;;6.31;70.09;97606.92;1695287;84;27411;-86
2021/11/19 05:03:19;;;;;;;7.87;5.72;;;;;;;6.30;70.07;97609.78;1695367;84;25748;-86
2021/11/19 05:05:49;;;;;;;7.60;5.87;;;;;;;6.29;70.14;97604.92;1695015;84;25811;-85
2021/11/19 05:08:16;;;;;;;7.62;5.85;;;;;;;6.26;70.32;97612.01;1695319;84;25748;-86
2021/11/19 05:10:46;;;;;;;7.08;5.20;;;;;;;6.25;70.32;97610.84;1695337;84;25724;-87
2021/11/19 05:13:14;;;;;;;7.20;5.58;;;;;;;6.25;70.52;97606.32;1695251;84;27424;-84
2021/11/19 05:15:44;;;;;;;7.92;5.28;;;;;;;6.25;70.66;97606.83;1695163;84;25333;-85
2021/11/19 05:18:12;;;;;;;6.03;5.37;;;;;;;6.24;70.82;97605.16;1695428;84;26388;-85
2021/11/19 05:20:40;;;;;;;7.05;5.60;;;;;;;6.24;71.00;97611.86;1695409;84;25862;-85
2021/11/19 05:23:07;;;;;;;10.70;5.75;;;;;;;6.25;71.11;97615.70;1695381;84;25736;-84
2021/11/19 05:25:36;;;;;;;6.78;5.40;;;;;;;6.21;71.17;97616.22;1695413;84;27368;-85
2021/11/19 05:28:04;;;;;;;6.55;5.53;;;;;;;6.16;71.36;97609.24;1691144;84;25774;-85
2021/11/19 05:30:30;;;;;;;7.83;5.30;;;;;;;6.14;71.44;97619.64;1681034;84;25852;-85
2021/11/19 05:32:57;;;;;;;7.78;5.80;;;;;;;6.12;71.61;97613.61;1695384;84;26520;-85
2021/11/19 05:35:25;;;;;;;6.37;5.45;;;;;;;6.10;71.75;97612.95;1695388;84;25794;-85
2021/11/19 05:37:51;;;;;;;7.35;5.65;;;;;;;6.07;71.87;97610.63;1695361;84;27411;-85
2021/11/19 05:40:21;;;;;;;7.67;5.75;;;;;;;6.07;72.04;97616.48;1695269;84;26284;-85
2021/11/19 05:42:50;;;;;;;7.15;5.53;;;;;;;6.07;72.01;97615.98;1695327;84;25816;-84
2021/11/19 05:45:19;;;;;;;9.50;5.90;;;;;;;6.07;72.13;97614.64;1695279;84;26318;-85
2021/11/19 05:47:47;;;;;;;6.30;5.03;;;;;;;6.06;72.30;97612.13;1695277;84;25908;-85
2021/11/19 05:50:17;;;;;;;7.58;4.78;;;;;;;6.02;72.34;97619.72;1695255;84;28444;-85
2021/11/19 05:52:43;;;;;;;8.15;5.30;;;;;;;6.04;72.41;97620.85;1686769;84;26285;-85
2021/11/19 05:55:15;;;;;;;6.30;4.65;;;;;;;5.99;72.31;97620.06;1686539;85;26369;-84
2021/11/19 05:57:43;;;;;;;8.08;5.42;;;;;;;5.96;72.39;97609.69;1687037;84;25725;-85
2021/11/19 06:00:18;;;;;;;7.83;5.53;;;;;;;5.95;72.67;97608.02;1686783;85;25723;-85
2021/11/19 06:02:45;;;;;;;7.47;5.20;;;;;;;5.95;72.66;97609.36;1668039;85;28460;-85
2021/11/19 06:05:11;;;;;;;7.12;4.08;;;;;;;5.94;72.51;97621.59;1685773;85;26737;-85
2021/11/19 06:07:39;;;;;;;6.62;4.25;;;;;;;5.90;72.79;97618.95;1686672;85;25649;-84
2021/11/19 06:10:07;;;;;;;6.30;4.40;;;;;;;5.90;72.88;97621.13;1659244;85;25775;-85
2021/11/19 06:12:42;;;;;;;8.13;4.60;;;;;;;5.91;73.07;97621.97;1686778;85;25799;-86
2021/11/19 06:15:20;;;;;;;7.05;3.90;;;;;;;5.91;73.07;97621.47;1684032;85;27620;-85
2021/11/19 06:17:51;;;;;;;3.87;3.35;;;;;;;5.91;73.14;97636.20;1686464;85;25712;-85
2021/11/19 06:20:25;;;;;;;4.87;3.92;;;;;;;5.88;73.43;97628.51;1686947;85;25772;-85
2021/11/19 06:22:59;;;;;;;3.95;3.50;;;;;;;5.89;73.55;97628.84;1687063;85;25707;-85
2021/11/19 06:25:30;;;;;;;4.80;3.67;;;;;;;5.89;73.68;97633.36;1682861;85;25751;-85
2021/11/19 06:28:00;;;;;;;4.33;3.35;;;;;;;5.89;73.78;97630.17;1683327;85;27433;-85
2021/11/19 06:30:29;;;;;;;3.30;2.80;;;;;;;5.92;73.82;97637.00;1626646;86;25923;-85
2021/11/19 06:32:57;;;;;;;3.65;2.80;;;;;;;5.91;73.89;97644.23;1626704;86;25770;-85
2021/11/19 06:35:24;;;;;;;5.33;2.72;;;;;;;5.88;73.99;97649.08;1626670;86;26534;-86
2021/11/19 06:37:51;;;;;;;5.55;3.08;;;;;;;5.88;74.16;97651.28;1626812;86;26449;-85
2021/11/19 06:40:26;;;;;;;4.12;2.80;;;;;;;5.87;74.14;97653.59;1626753;86;27480;-84
2021/11/19 06:42:53;;;;;;;4.78;2.62;;;;;;;5.88;74.33;97653.96;1626551;86;25797;-85
2021/11/19 06:45:20;;;;;;;3.25;2.17;;;;;;;5.88;74.41;97658.45;1626467;86;25773;-86
2021/11/19 06:47:47;;;;;;;3.42;2.70;;;;;;;5.86;74.32;97655.11;1626644;86;26623;-85
2021/11/19 06:50:17;;;;;;;5.92;2.90;;;;;;;5.84;74.46;97663.31;1626695;86;25791;-85
2021/11/19 06:52:45;;;;;;;4.85;3.02;;;;;;;5.85;74.65;97658.29;1630517;86;27434;-85
2021/11/19 06:55:13;;;;;;;6.25;2.83;;;;;;;5.84;74.76;97661.98;1631216;86;25969;-85
2021/11/19 06:57:41;;;;;;;4.80;2.72;;;;;;;5.83;74.87;97668.84;1631537;86;25820;-85
2021/11/19 07:00:13;;;;;;;2.62;2.15;;;;;;;5.84;74.90;97668.67;1631691;86;25969;-86
2021/11/19 07:02:40;;;;;;;3.10;2.50;;;;;;;5.83;74.86;97668.34;1631843;86;26012;-87
2021/11/19 07:05:07;;;;;;;3.65;2.50;;;;;;;5.78;75.14;97676.09;1631520;86;27384;-87
2021/11/19 07:07:33;;;;;;;4.80;2.45;;;;;;;5.75;75.20;97676.42;1631497;86;26483;-86
2021/11/19 07:10:00;;;;;;;4.12;2.70;;;;;;;5.74;75.34;97672.08;1631575;86;25782;-86
2021/11/19 07:12:26;;;;;;;3.20;2.42;;;;;;;5.75;75.43;97669.73;1631529;86;26487;-86
2021/11/19 07:14:53;;;;;;;3.98;2.50;;;;;;;5.76;75.43;97667.38;1631600;86;25761;-86
2021/11/19 07:17:20;;;;;;;5.08;3.72;;;;;;;5.77;75.50;97667.72;1631512;86;28275;-87
2021/11/19 07:19:46;;;;;;;5.90;3.60;;;;;;;5.76;75.60;97658.01;1631498;86;25933;-88
2021/11/19 07:22:13;;;;;;;5.42;4.83;;;;;;;5.71;75.79;97650.48;1626551;87;26319;-88
2021/11/19 07:24:41;;;;;;;6.90;4.78;;;;;;;5.75;75.79;97663.03;1626604;87;25795;-87
2021/11/19 07:27:11;;;;;;;5.60;4.10;;;;;;;5.77;75.82;97661.02;1626697;87;25769;-87
2021/11/19 07:29:39;;;;;;;11.65;7.35;;;;;;;5.78;75.84;97666.70;1626770;87;27399;-88
2021/11/19 07:32:06;;;;;;;34.40;17.32;;;;;;;5.78;75.88;97668.05;1626560;87;25859;-88
2021/11/19 07:34:33;;;;;;;67.62;35.75;;;;;;;5.78;75.90;97665.38;1626621;87;25887;-88
2021/11/19 07:37:00;;;;;;;51.68;27.80;;;;;;;5.79;75.96;97657.66;1626626;87;26363;-87
2021/11/19 07:39:27;;;;;;;98.37;50.88;;;;;;;5.77;76.05;97669.89;1626690;87;25780;-87
2021/11/19 07:41:53;;;;;;;92.12;48.70;;;;;;;5.79;76.12;97677.76;1626359;87;27456;-86
2021/11/19 07:44:20;;;;;;;43.68;22.93;;;;;;;5.79;76.32;97678.59;1626601;87;26050;-87
2021/11/19 07:46:48;;;;;;;24.23;12.85;;;;;;;5.82;76.43;97678.72;1626705;87;25762;-85
2021/11/19 07:49:15;;;;;;;14.93;9.23;;;;;;;5.83;76.46;97679.06;1626746;87;26322;-86
2021/11/19 07:51:46;;;;;;;11.75;7.40;;;;;;;5.83;76.56;97677.72;1625251;87;25880;-87
2021/11/19 07:54:13;;;;;;;15.00;10.25;;;;;;;5.85;76.67;97674.87;1621506;88;27449;-86
2021/11/19 07:56:40;;;;;;;11.48;7.03;;;;;;;5.84;76.79;97675.37;1621483;87;25742;-87
2021/11/19 07:59:15;;;;;;;10.25;6.70;;;;;;;5.85;76.66;97678.38;1621549;87;25794;-86
2021/11/19 08:01:43;;;;;;;11.38;7.90;;;;;;;5.86;76.77;97673.36;1618793;87;25835;-86
2021/11/19 08:04:10;;;;;;;10.85;6.92;;;;;;;5.88;76.82;97671.84;1639749;87;25714;-86
2021/11/19 08:06:37;;;;;;;7.55;4.85;;;;;;;5.91;76.81;97676.39;1639682;87;27460;-86
2021/11/19 08:09:05;;;;;;;6.83;4.08;;;;;;;5.92;76.84;97678.03;1639588;87;25878;-87
2021/11/19 08:11:32;;;;;;;7.65;3.90;;;;;;;5.92;76.81;97672.67;1639765;86;25797;-86
2021/11/19 08:13:59;;;;;;;3.67;2.30;;;;;;;5.95;76.94;97675.00;1639635;87;25782;-87
2021/11/19 08:16:30;;;;;;;5.00;3.20;;;;;;;5.99;76.92;97673.66;1639624;87;25662;-87
2021/11/19 08:19:00;;;;;;;5.17;3.33;;;;;;;6.02;76.95;97673.31;1638494;87;27409;-87
2021/11/19 08:21:28;;;;;;;4.35;2.95;;;;;;;6.04;76.91;97670.42;1639600;87;25813;-87
2021/11/19 08:24:00;;;;;;;5.20;3.20;;;;;;;6.06;77.03;97668.41;1639709;87;25914;-87
2021/11/19 08:26:38;;;;;;;7.92;3.95;;;;;;;6.07;77.09;97674.10;1639495;87;25763;-85
2021/11/19 08:29:09;;;;;;;5.47;3.55;;;;;;;6.09;77.13;97671.58;1628650;87;25821;-85
2021/11/19 08:31:36;;;;;;;5.95;3.83;;;;;;;6.12;77.19;97673.92;1621462;87;28213;-85
2021/11/19 08:34:05;;;;;;;5.90;3.12;;;;;;;6.16;77.27;97678.94;1621439;87;25783;-86
2021/11/19 08:36:33;;;;;;;6.45;3.90;;;;;;;6.18;77.31;97676.88;1621582;88;25743;-85
2021/11/19 08:39:03;;;;;;;7.00;3.90;;;;;;;6.18;77.28;97680.91;1621645;88;26458;-85
2021/11/19 08:41:29;;;;;;;5.05;3.45;;;;;;;6.19;77.24;97682.58;1621623;87;25772;-85
2021/11/19 08:43:58;;;;;;;5.35;3.62;;;;;;;6.18;77.30;97687.61;1619687;87;27542;-85
2021/11/19 08:46:33;;;;;;;8.30;3.80;;;;;;;6.18;77.42;97687.61;1618468;87;25853;-86
2021/11/19 08:49:02;;;;;;;6.08;4.00;;;;;;;6.16;77.38;97695.81;1621568;87;26340;-86
2021/11/19 08:51:30;;;;;;;4.78;3.47;;;;;;;6.18;77.49;97695.64;1621587;88;25940;-86
2021/11/19 08:54:02;;;;;;;9.05;3.20;;;;;;;6.18;77.54;97692.97;1621669;87;25793;-86
2021/11/19 08:56:30;;;;;;;4.58;2.90;;;;;;;6.20;77.61;97692.29;1617661;88;27482;-86
2021/11/19 08:58:58;;;;;;;4.17;3.27;;;;;;;6.20;77.65;97686.42;1621443;87;26524;-85
2021/11/19 09:01:25;;;;;;;5.70;3.33;;;;;;;6.25;77.70;97697.46;1621550;88;25354;-86
2021/11/19 09:03:51;;;;;;;3.22;2.75;;;;;;;6.26;77.81;97696.95;1612902;87;25814;-86
2021/11/19 09:06:21;;;;;;;3.45;2.55;;;;;;;6.30;77.81;97696.91;1610438;88;25940;-86
2021/11/19 09:08:49;;;;;;;3.35;2.42;;;;;;;6.32;77.75;97694.89;1609718;87;27369;-86
2021/11/19 09:11:20;;;;;;;2.98;1.95;;;;;;;6.33;77.81;97693.88;1614862;87;25758;-85
2021/11/19 09:13:50;;;;;;;3.40;2.20;;;;;;;6.32;77.84;97695.73;1622637;87;25888;-86
2021/11/19 09:16:20;;;;;;;3.60;2.47;;;;;;;6.34;77.85;97688.85;1639546;86;25734;-86
2021/11/19 09:18:58;;;;;;;3.50;2.55;;;;;;;6.36;77.86;97698.90;1639556;87;25801;-87
2021/11/19 09:21:32;;;;;;;2.85;2.47;;;;;;;6.35;77.86;97695.38;1639619;86;27477;-88
2021/11/19 09:24:10;;;;;;;3.62;2.20;;;;;;;6.36;77.87;97693.03;1639532;87;25707;-87
2021/11/19 09:26:56;;;;;;;4.70;2.50;;;;;;;6.35;77.90;97690.02;1639645;87;25771;-87
2021/11/19 09:29:30;;;;;;;3.30;2.77;;;;;;;6.37;77.99;97696.55;1637919;87;25871;-87
2021/11/19 09:31:58;;;;;;;3.77;2.22;;;;;;;6.38;77.97;97687.50;1639599;87;25942;-86
2021/11/19 09:34:26;;;;;;;4.03;2.70;;;;;;;6.39;78.07;97688.66;1639515;87;28432;-86
2021/11/19 09:36:53;;;;;;;3.90;2.67;;;;;;;6.40;78.11;97685.48;1639425;87;25852;-86
2021/11/19 09:39:26;;;;;;;4.15;2.72;;;;;;;6.42;78.11;97695.48;1639604;87;25747;-86
2021/11/19 09:42:17;;;;;;;3.95;2.55;;;;;;;6.43;78.18;97689.12;1639444;87;25815;-86
2021/11/19 09:45:04;;;;;;;6.83;3.60;;;;;;;6.44;78.25;97684.09;1620384;87;25381;-87
2021/11/19 09:48:26;;;;;;;3.85;2.52;;;;;;;6.43;78.33;97690.45;1611662;87;28324;-86
2021/11/19 09:51:30;;;;;;;4.25;2.92;;;;;;;6.45;78.41;97688.44;1611868;87;25803;-85
2021/11/19 09:54:20;;;;;;;5.42;2.40;;;;;;;6.44;78.44;97686.27;1615422;87;25828;-87
2021/11/19 09:57:07;;;;;;;3.10;2.15;;;;;;;6.46;78.48;97688.77;1582392;88;25831;-87
2021/11/19 10:00:00;;;;;;;3.42;2.50;;;;;;;6.47;78.55;97677.87;1612190;87;25763;-87
2021/11/19 10:02:41;;;;;;;;;;;;;;;6.49;78.63;97674.50;1614167;88;27387;-87
2021/11/19 10:05:36;;;;;;;3.00;2.40;;;;;;;6.51;78.75;97675.67;1613649;87;25847;-87
2021/11/19 10:08:23;;;;;;;6.00;2.62;;;;;;;6.53;78.85;97677.64;1614349;87;25782;-86
2021/11/19 10:11:10;;;;;;;6.17;2.65;;;;;;;6.56;78.81;97682.66;1612780;87;26419;-86
2021/11/19 10:14:13;;;;;;;7.92;2.70;;;;;;;6.56;78.72;97675.95;1612570;87;25820;-87
2021/11/19 10:17:07;;;;;;;4.47;2.77;;;;;;;6.54;78.77;97669.92;1625610;86;29914;-87
2021/11/19 10:19:54;;;;;;;5.75;3.33;;;;;;;6.55;78.90;97668.08;1627256;86;25855;-88
2021/11/19 10:22:46;;;;;;;7.22;3.45;;;;;;;6.56;78.97;97659.02;1598507;86;25726;-88
2021/11/19 10:25:20;;;;;;;5.65;3.02;;;;;;;6.57;79.08;97666.89;1551806;90;25922;-87
2021/11/19 10:27:54;;;;;;;5.25;3.47;;;;;;;6.59;79.17;97660.84;1530555;90;26984;-86
2021/11/19 10:30:40;;;;;;;5.05;3.50;;;;;;;6.60;79.24;97653.13;1554330;90;27608;-87
2021/11/19 10:33:20;;;;;;;5.50;3.50;;;;;;;6.62;79.33;97653.78;1533943;91;25882;-87
2021/11/19 10:36:01;;;;;;;7.15;3.80;;;;;;;6.67;79.50;97646.02;1543374;91;25971;-87
2021/11/19 10:39:13;;;;;;;5.08;3.80;;;;;;;6.72;79.49;97640.95;1537344;91;26000;-87
2021/11/19 10:42:25;;;;;;;5.70;3.92;;;;;;;6.74;79.49;97638.92;1542659;91;26570;-87
2021/11/19 10:45:03;;;;;;;5.95;3.60;;;;;;;6.75;79.51;97633.05;1536125;92;27349;-88
2021/11/19 10:48:10;;;;;;;6.40;4.00;;;;;;;6.80;79.67;97632.81;1541253;92;25849;-88
2021/11/19 10:51:05;;;;;;;5.08;3.67;;;;;;;6.92;80.18;97627.00;1533917;93;25818;-88
2021/11/19 10:54:01;;;;;;;9.38;4.53;;;;;;;6.99;79.98;97617.22;1512047;93;25903;-88
2021/11/19 10:56:51;;;;;;;7.42;3.85;;;;;;;7.00;79.85;97624.27;1488104;94;25790;-88
2021/11/19 10:59:41;;;;;;;6.00;3.65;;;;;;;7.02;79.68;97614.15;1491304;94;28281;-89
2021/11/19 11:02:25;;;;;;;6.72;4.00;;;;;;;7.04;79.74;97622.86;1487210;92;26326;-89
2021/11/19 11:04:53;;;;;;;6.80;4.45;;;;;;;7.05;79.74;97615.97;1527716;92;25940;-89
2021/11/19 11:07:30;;;;;;;10.85;5.83;;;;;;;7.07;79.73;97621.16;1523997;92;25992;-90
2021/11/19 11:10:14;;;;;;;15.50;7.58;;;;;;;7.07;79.83;97614.45;1520501;92;25756;-90
2021/11/19 11:12:51;;;;;;;14.83;6.40;;;;;;;7.08;79.97;97617.45;1526105;92;27619;-89
2021/11/19 11:15:34;;;;;;;18.40;7.83;;;;;;;7.09;80.27;97619.12;1523051;92;25917;-89
2021/11/19 11:18:15;;;;;;;13.03;6.22;;;;;;;7.14;80.24;97618.05;1522654;92;25903;-89
2021/11/19 11:20:56;;;;;;;11.78;5.95;;;;;;;7.19;80.30;97614.31;1532827;89;26707;-90
2021/11/19 11:23:45;;;;;;;8.15;4.67;;;;;;;7.22;80.36;97610.76;1614773;88;25286;-90
2021/11/19 11:26:23;;;;;;;10.18;5.40;;;;;;;7.26;80.47;97608.52;1600707;89;27493;-89
2021/11/19 11:29:00;;;;;;;10.10;6.83;;;;;;;7.31;80.50;97607.97;1607877;88;25801;-90
2021/11/19 11:31:47;;;;;;;14.15;8.73;;;;;;;7.34;80.42;97607.61;1605468;88;25782;-89
2021/11/19 11:34:23;;;;;;;21.97;11.00;;;;;;;7.25;80.50;97594.76;1605442;89;25845;-89
2021/11/19 11:37:35;;;;;;;11.53;6.25;;;;;;;7.39;80.66;97612.72;1605361;88;25881;-89
2021/11/19 11:40:50;;;;;;;7.78;5.53;;;;;;;7.43;80.72;97607.82;1602089;89;27586;-89
2021/11/19 11:43:27;;;;;;;8.68;4.95;;;;;;;7.46;80.78;97617.69;1601391;89;25602;-88
2021/11/19 11:46:23;;;;;;;10.60;4.80;;;;;;;7.50;80.72;97614.94;1586905;89;36446;-88
2021/11/19 11:49:28;;;;;;;12.25;5.28;;;;;;;7.53;80.77;97620.45;1583117;89;25817;-89
2021/11/19 11:52:21;;;;;;;13.68;7.25;;;;;;;7.55;80.82;97623.28;1594484;88;25880;-90
2021/11/19 11:55:28;;;;;;;10.98;6.33;;;;;;;7.58;80.85;97616.20;1581651;90;27423;-89
2021/11/19 11:58:20;;;;;;;7.92;4.28;;;;;;;7.62;80.85;97615.29;1570838;90;25845;-88
2021/11/19 12:01:01;;;;;;;13.98;6.10;;;;;;;7.65;80.86;97616.77;1581940;90;25852;-89
2021/11/19 12:04:01;;;;;;;12.30;5.22;;;;;;;7.67;80.84;97606.17;1581972;90;25959;-88
2021/11/19 12:06:51;;;;;;;11.08;6.10;;;;;;;7.71;80.86;97616.04;1581982;90;25785;-89